Time;durP1;ratioP1;P1;durP2;ratioP2;P2;SDS_P1;SDS_P2;PMS_P1;PMS_P2;Temp;Humidity;BMP_temperature;BMP_pressure;BME280_temperature;BME280_humidity;BME280_pressure;Samples;Min_cycle;Max_cycle;Signal;HPM_P1;HPM_P2
2024/02/15 00:02:30;;;;;;;;;;;;;;;10.14;51.99;99374.09;68503;1278;1015650;-70
2024/02/15 00:05:34;;;;;;;;;;;;;;;10.15;51.96;99368.98;68507;1278;1015608;-70
2024/02/15 00:08:37;;;;;;;;;;;;;;;10.16;51.70;99371.04;68505;1278;1015930;-70
2024/02/15 00:11:40;;;;;;;;;;;;;;;10.08;51.92;99371.09;68509;1278;1016230;-70
2024/02/15 00:14:42;;;;;;;;;;;;;;;10.15;51.72;99374.41;68502;1278;1015851;-70
2024/02/15 00:17:46;;;;;;;;;;;;;;;10.02;52.60;99374.16;68490;1278;1015906;-70
2024/02/15 00:20:49;;;;;;;;;;;;;;;9.98;52.60;99371.54;68497;1278;1015697;-69
2024/02/15 00:23:54;;;;;;;;;;;;;;;10.13;52.38;99368.02;68489;1278;1015397;-70
2024/02/15 00:26:56;;;;;;;;;;;;;;;10.15;52.39;99372.65;68497;1278;1016094;-69
2024/02/15 00:29:59;;;;;;;;;;;;;;;10.37;51.99;99370.66;68478;1278;1015879;-70
2024/02/15 00:33:02;;;;;;;;;;;;;;;10.49;51.76;99374.30;68497;1278;1016123;-70
2024/02/15 00:36:05;;;;;;;;;;;;;;;10.47;51.42;99375.92;68495;1278;1015893;-70
2024/02/15 00:39:08;;;;;;;;;;;;;;;10.57;51.58;99379.11;68440;1279;1016204;-70
2024/02/15 00:42:11;;;;;;;;;;;;;;;10.59;51.31;99376.73;68444;1279;1015367;-70
2024/02/15 00:45:14;;;;;;;;;;;;;;;10.57;51.51;99372.30;68448;1279;1015854;-70
2024/02/15 00:48:16;;;;;;;;;;;;;;;10.52;51.77;99375.19;68439;1279;1014721;-70
2024/02/15 00:51:19;;;;;;;;;;;;;;;10.64;51.23;99377.16;68446;1279;1014685;-70
2024/02/15 00:54:22;;;;;;;;;;;;;;;10.70;51.33;99380.20;68434;1279;1015836;-70
2024/02/15 00:57:25;;;;;;;;;;;;;;;10.70;51.41;99381.71;68458;1279;1015287;-70
2024/02/15 01:00:28;;;;;;;;;;;;;;;10.70;51.53;99388.02;68447;1279;1015927;-70
2024/02/15 01:03:31;;;;;;;;;;;;;;;10.56;51.61;99388.92;68457;1279;1015275;-70
2024/02/15 01:06:34;;;;;;;;;;;;;;;10.54;51.83;99391.66;68450;1279;1015363;-70
2024/02/15 01:09:36;;;;;;;;;;;;;;;10.59;51.90;99392.79;68471;1279;1015395;-70
2024/02/15 01:12:39;;;;;;;;;;;;;;;10.72;51.34;99391.06;68462;1279;1015791;-70
2024/02/15 01:15:42;;;;;;;;;;;;;;;10.68;51.61;99396.92;68446;1279;1016032;-69
2024/02/15 01:18:44;;;;;;;;;;;;;;;10.76;51.31;99399.96;68434;1279;1016017;-70
2024/02/15 01:21:47;;;;;;;;;;;;;;;10.78;51.25;99400.04;68464;1279;1015752;-62
2024/02/15 01:24:49;;;;;;;;;;;;;;;10.75;51.35;99396.89;68466;1279;1015791;-70
2024/02/15 01:27:52;;;;;;;;;;;;;;;10.61;51.72;99394.10;68459;1279;1015815;-69
2024/02/15 01:30:55;;;;;;;;;;;;;;;10.73;51.77;99391.70;68449;1280;1015810;-70
2024/02/15 01:33:59;;;;;;;;;;;;;;;10.82;51.74;99388.66;68444;1280;1015510;-70
2024/02/15 01:37:01;;;;;;;;;;;;;;;10.77;51.48;99385.58;68439;1279;1015424;-70
2024/02/15 01:40:06;;;;;;;;;;;;;;;10.57;52.06;99386.10;68478;1278;1015914;-70
2024/02/15 01:43:09;;;;;;;;;;;;;;;10.45;52.40;99386.67;68480;1279;1015630;-70
2024/02/15 01:46:11;;;;;;;;;;;;;;;10.55;52.16;99381.10;68484;1278;1015126;-70
2024/02/15 01:49:14;;;;;;;;;;;;;;;10.64;52.30;99378.90;68477;1278;1015903;-70
2024/02/15 01:52:17;;;;;;;;;;;;;;;10.64;52.50;99378.02;68499;1278;1015703;-70
2024/02/15 01:55:19;;;;;;;;;;;;;;;10.72;52.12;99383.04;68478;1278;1015745;-70
2024/02/15 01:58:22;;;;;;;;;;;;;;;10.73;52.13;99379.85;68489;1278;1016006;-70
2024/02/15 02:01:25;;;;;;;;;;;;;;;10.77;52.20;99378.09;68491;1279;1015378;-70
2024/02/15 02:04:27;;;;;;;;;;;;;;;10.84;52.19;99375.42;68490;1278;1016002;-70
2024/02/15 02:07:30;;;;;;;;;;;;;;;11.00;52.02;99374.91;68486;1279;1015302;-70
2024/02/15 02:10:33;;;;;;;;;;;;;;;11.16;51.88;99370.73;68477;1279;1015503;-69
2024/02/15 02:13:35;;;;;;;;;;;;;;;11.01;51.98;99371.69;68497;1279;1016088;-70
2024/02/15 02:16:39;;;;;;;;;;;;;;;11.01;52.02;99370.97;68471;1279;1015461;-70
2024/02/15 02:19:42;;;;;;;;;;;;;;;11.00;52.14;99367.91;68486;1278;1015805;-70
2024/02/15 02:22:45;;;;;;;;;;;;;;;11.13;52.06;99369.17;68499;1279;1015994;-70
2024/02/15 02:25:49;;;;;;;;;;;;;;;11.09;52.09;99365.31;68486;1278;1014629;-70
2024/02/15 02:28:53;;;;;;;;;;;;;;;10.98;52.59;99368.03;68479;1278;1015222;-70
2024/02/15 02:31:55;;;;;;;;;;;;;;;10.86;53.13;99370.94;68480;1278;1015185;-70
2024/02/15 02:34:58;;;;;;;;;;;;;;;10.99;52.78;99366.73;68511;1278;1016339;-70
2024/02/15 02:38:00;;;;;;;;;;;;;;;10.92;52.76;99368.87;68470;1279;1015252;-70
2024/02/15 02:41:03;;;;;;;;;;;;;;;10.92;52.83;99371.66;68442;1280;1015527;-70
2024/02/15 02:44:05;;;;;;;;;;;;;;;11.04;52.72;99371.87;68453;1279;1015524;-70
2024/02/15 02:47:08;;;;;;;;;;;;;;;11.21;52.83;99365.73;68456;1280;1015552;-70
2024/02/15 02:50:11;;;;;;;;;;;;;;;11.32;52.58;99366.36;68453;1280;1015790;-70
2024/02/15 02:53:13;;;;;;;;;;;;;;;11.26;52.73;99361.08;68444;1279;1015877;-70
2024/02/15 02:56:16;;;;;;;;;;;;;;;11.16;52.91;99354.80;68447;1279;1016331;-70
2024/02/15 02:59:19;;;;;;;;;;;;;;;11.08;53.22;99355.03;68454;1280;1016406;-70
2024/02/15 03:02:22;;;;;;;;;;;;;;;11.20;52.97;99352.48;68436;1279;1015771;-70
2024/02/15 03:05:24;;;;;;;;;;;;;;;11.26;52.82;99352.66;68454;1280;1016182;-70
2024/02/15 03:08:27;;;;;;;;;;;;;;;11.20;52.82;99354.08;68448;1280;1015306;-70
2024/02/15 03:11:31;;;;;;;;;;;;;;;11.21;52.66;99353.45;68446;1279;1015731;-70
2024/02/15 03:14:35;;;;;;;;;;;;;;;11.06;53.03;99360.27;68438;1280;1014685;-70
2024/02/15 03:17:38;;;;;;;;;;;;;;;10.98;53.22;99359.09;68442;1279;1014663;-70
2024/02/15 03:20:41;;;;;;;;;;;;;;;11.07;53.22;99360.15;68433;1280;1015537;-70
2024/02/15 03:23:44;;;;;;;;;;;;;;;10.95;53.24;99365.38;68433;1279;1015477;-70
2024/02/15 03:26:46;;;;;;;;;;;;;;;10.91;53.53;99365.09;68449;1280;1015705;-64
2024/02/15 03:29:49;;;;;;;;;;;;;;;10.83;53.82;99371.81;68435;1279;1015436;-70
2024/02/15 03:32:52;;;;;;;;;;;;;;;10.87;53.79;99372.80;68455;1280;1016201;-70
2024/02/15 03:36:00;;;;;;;;;;;;;;;10.97;53.63;99377.73;68431;1280;1016353;-70
2024/02/15 03:39:03;;;;;;;;;;;;;;;10.91;53.51;99373.46;68462;1278;1015605;-70
2024/02/15 03:42:05;;;;;;;;;;;;;;;10.75;54.03;99381.14;68492;1278;1015640;-70
2024/02/15 03:45:08;;;;;;;;;;;;;;;10.71;54.07;99379.23;68475;1278;1015597;-70
2024/02/15 03:48:10;;;;;;;;;;;;;;;10.75;54.35;99381.70;68483;1278;1016097;-70
2024/02/15 03:51:14;;;;;;;;;;;;;;;10.68;54.77;99383.41;68486;1278;1015512;-70
2024/02/15 03:54:17;;;;;;;;;;;;;;;10.65;54.62;99379.89;68478;1278;1015388;-65
2024/02/15 03:57:20;;;;;;;;;;;;;;;10.68;54.45;99378.18;68486;1279;1015847;-70
2024/02/15 04:00:24;;;;;;;;;;;;;;;10.64;54.44;99379.95;68490;1278;1015267;-70
2024/02/15 04:03:27;;;;;;;;;;;;;;;10.67;54.63;99380.14;68486;1279;1015565;-70
2024/02/15 04:06:33;;;;;;;;;;;;;;;10.70;54.74;99373.86;68476;1278;1016676;-70
2024/02/15 04:09:36;;;;;;;;;;;;;;;10.76;54.60;99372.16;68486;1278;1016006;-69
2024/02/15 04:12:41;;;;;;;;;;;;;;;10.64;54.88;99366.16;68506;1278;1015813;-70
2024/02/15 04:15:46;;;;;;;;;;;;;;;10.59;54.85;99361.16;68499;1278;1015996;-70
2024/02/15 04:18:50;;;;;;;;;;;;;;;10.75;54.47;99352.98;68493;1279;1015687;-69
2024/02/15 04:21:55;;;;;;;;;;;;;;;10.77;54.26;99349.22;68491;1278;1015973;-70
2024/02/15 04:24:57;;;;;;;;;;;;;;;10.69;54.38;99357.48;68491;1278;1016074;-69
2024/02/15 04:28:03;;;;;;;;;;;;;;;10.67;54.00;99365.80;68499;1279;1016028;-69
2024/02/15 04:31:08;;;;;;;;;;;;;;;10.57;54.63;99368.43;68510;1278;1015886;-69
2024/02/15 04:34:11;;;;;;;;;;;;;;;10.67;54.32;99366.68;68496;1279;1016803;-70
2024/02/15 04:37:14;;;;;;;;;;;;;;;10.59;54.65;99371.82;68498;1279;1016040;-68
2024/02/15 04:40:18;;;;;;;;;;;;;;;10.52;54.70;99367.96;68493;1278;1015867;-70
2024/02/15 04:43:20;;;;;;;;;;;;;;;10.45;54.93;99365.02;68498;1278;1015135;-69
2024/02/15 04:46:24;;;;;;;;;;;;;;;10.51;54.83;99361.77;68497;1278;1015780;-70
2024/02/15 04:49:28;;;;;;;;;;;;;;;10.60;54.72;99361.63;68495;1278;1015691;-70
2024/02/15 04:52:31;;;;;;;;;;;;;;;10.69;54.46;99362.37;68500;1278;1015490;-70
2024/02/15 04:55:35;;;;;;;;;;;;;;;10.56;54.70;99361.30;68503;1278;1016023;-70
2024/02/15 04:58:37;;;;;;;;;;;;;;;10.39;55.26;99363.40;68494;1278;1014554;-69
2024/02/15 05:01:42;;;;;;;;;;;;;;;10.47;55.28;99366.15;68506;1279;1016180;-70
2024/02/15 05:04:47;;;;;;;;;;;;;;;10.44;55.42;99369.10;68485;1278;1015783;-69
2024/02/15 05:07:50;;;;;;;;;;;;;;;10.34;55.88;99375.74;68490;1279;1015940;-68
2024/02/15 05:10:56;;;;;;;;;;;;;;;10.14;56.41;99378.81;68494;1278;1015835;-69
2024/02/15 05:13:59;;;;;;;;;;;;;;;10.22;56.63;99380.67;68473;1278;1016091;-70
2024/02/15 05:17:02;;;;;;;;;;;;;;;10.30;56.44;99381.17;68507;1278;1015578;-70
2024/02/15 05:20:10;;;;;;;;;;;;;;;10.49;56.45;99375.98;68510;1278;1015840;-69
2024/02/15 05:23:14;;;;;;;;;;;;;;;10.60;55.87;99382.60;68499;1278;1016116;-70
2024/02/15 05:26:22;;;;;;;;;;;;;;;10.59;55.75;99386.52;68482;1278;1014889;-69
2024/02/15 05:29:25;;;;;;;;;;;;;;;10.64;55.72;99383.13;68501;1278;1015659;-70
2024/02/15 05:32:28;;;;;;;;;;;;;;;10.61;56.02;99382.55;68496;1278;1014750;-70
2024/02/15 05:35:31;;;;;;;;;;;;;;;10.54;56.04;99385.35;68484;1278;1015735;-69
2024/02/15 05:38:34;;;;;;;;;;;;;;;10.53;56.42;99388.40;68521;1278;1016093;-70
2024/02/15 05:41:36;;;;;;;;;;;;;;;10.48;56.37;99394.05;68490;1278;1015244;-70
2024/02/15 05:44:39;;;;;;;;;;;;;;;10.47;56.34;99394.29;68501;1278;1015726;-69
2024/02/15 05:47:43;;;;;;;;;;;;;;;10.54;56.68;99389.39;68502;1278;1016009;-69
2024/02/15 05:50:46;;;;;;;;;;;;;;;10.45;57.20;99392.65;68509;1278;1015955;-70
2024/02/15 05:53:49;;;;;;;;;;;;;;;10.68;56.32;99391.63;68522;1278;1015801;-70
2024/02/15 05:56:54;;;;;;;;;;;;;;;10.63;56.37;99391.04;68533;1278;1015851;-70
2024/02/15 05:59:57;;;;;;;;;;;;;;;10.57;56.34;99398.14;68499;1278;1015866;-69
2024/02/15 06:03:02;;;;;;;;;;;;;;;10.52;57.01;99408.75;68529;1278;1016585;-70
2024/02/15 06:06:06;;;;;;;;;;;;;;;10.61;56.73;99412.13;68535;1278;1016222;-70
2024/02/15 06:09:09;;;;;;;;;;;;;;;10.75;56.58;99411.09;68515;1278;1015911;-70
2024/02/15 06:12:11;;;;;;;;;;;;;;;10.85;56.73;99414.58;68509;1278;1015701;-69
2024/02/15 06:15:15;;;;;;;;;;;;;;;10.82;56.52;99420.11;68527;1278;1015413;-70
2024/02/15 06:18:21;;;;;;;;;;;;;;;10.95;56.18;99416.49;68527;1278;1015674;-70
2024/02/15 06:21:23;;;;;;;;;;;;;;;11.02;56.23;99408.58;68512;1278;1015562;-70
2024/02/15 06:24:28;;;;;;;;;;;;;;;10.97;56.70;99406.92;68515;1278;1015985;-70
2024/02/15 06:27:30;;;;;;;;;;;;;;;10.97;56.64;99413.76;68514;1278;1016303;-70
2024/02/15 06:40:33;;;;;;;;;;;;;;;11.26;56.05;99422.54;68525;1278;1015878;-70
2024/02/15 06:43:35;;;;;;;;;;;;;;;11.11;56.58;99426.48;68522;1278;1014636;-70
2024/02/15 06:46:38;;;;;;;;;;;;;;;11.02;56.97;99427.14;68506;1278;1015686;-70
2024/02/15 06:49:41;;;;;;;;;;;;;;;11.16;57.26;99425.52;68531;1278;1015829;-70
2024/02/15 06:52:44;;;;;;;;;;;;;;;11.39;56.81;99423.19;68527;1278;1015898;-69
2024/02/15 06:55:48;;;;;;;;;;;;;;;11.40;56.91;99413.86;68526;1278;1015796;-69
2024/02/15 06:58:51;;;;;;;;;;;;;;;11.34;56.99;99416.88;68521;1278;1015914;-70
2024/02/15 07:01:55;;;;;;;;;;;;;;;11.37;57.16;99416.86;68532;1278;1015706;-70
2024/02/15 07:04:57;;;;;;;;;;;;;;;11.44;56.94;99423.31;68525;1278;1015635;-69
2024/02/15 07:08:00;;;;;;;;;;;;;;;11.48;56.85;99420.46;68507;1278;1015380;-70
2024/02/15 07:11:04;;;;;;;;;;;;;;;11.35;57.32;99426.75;68529;1278;1015849;-69
2024/02/15 07:14:07;;;;;;;;;;;;;;;11.32;57.53;99433.21;68531;1278;1014562;-70
2024/02/15 07:17:10;;;;;;;;;;;;;;;11.37;57.63;99435.04;68518;1278;1015724;-70
2024/02/15 07:20:17;;;;;;;;;;;;;;;11.35;57.90;99436.07;68531;1278;1016708;-69
2024/02/15 07:23:20;;;;;;;;;;;;;;;11.57;57.37;99439.55;68532;1278;1015610;-70
2024/02/15 07:26:24;;;;;;;;;;;;;;;11.66;57.23;99439.23;68519;1278;1015536;-69
2024/02/15 07:29:27;;;;;;;;;;;;;;;11.74;57.69;99438.81;68517;1278;1015692;-69
2024/02/15 07:32:31;;;;;;;;;;;;;;;11.76;57.92;99437.63;68517;1278;1015410;-70
2024/02/15 07:35:34;;;;;;;;;;;;;;;11.77;57.80;99442.14;68544;1278;1015964;-70
2024/02/15 07:38:37;;;;;;;;;;;;;;;11.71;58.29;99437.56;68523;1278;1015479;-70
2024/02/15 07:41:39;;;;;;;;;;;;;;;11.75;58.28;99439.26;68507;1278;1015758;-70
2024/02/15 07:44:42;;;;;;;;;;;;;;;11.81;58.38;99438.42;68514;1278;1015715;-70
2024/02/15 07:47:46;;;;;;;;;;;;;;;11.84;58.54;99438.98;68508;1278;1015577;-68
2024/02/15 07:50:48;;;;;;;;;;;;;;;11.85;58.40;99442.04;68443;1278;1015643;-69
2024/02/15 07:53:51;;;;;;;;;;;;;;;11.94;58.38;99439.98;68533;1278;1015412;-69
2024/02/15 07:56:53;;;;;;;;;;;;;;;11.94;58.36;99441.90;68543;1278;1015006;-70
2024/02/15 07:59:56;;;;;;;;;;;;;;;11.94;58.17;99439.27;68522;1278;1015904;-69
2024/02/15 08:03:00;;;;;;;;;;;;;;;11.92;58.84;99437.11;65946;1278;6361571;-69
2024/02/15 08:06:06;;;;;;;;;;;;;;;12.00;59.02;99435.45;68513;1278;1015672;-69
2024/02/15 08:09:17;;;;;;;;;;;;;;;12.14;58.90;99435.35;68412;1278;1016751;-69
2024/02/15 08:12:20;;;;;;;;;;;;;;;12.27;58.85;99439.86;68523;1278;1015279;-68
2024/02/15 08:15:24;;;;;;;;;;;;;;;12.25;58.93;99443.13;68523;1278;1016224;-69
2024/02/15 08:18:27;;;;;;;;;;;;;;;12.34;58.83;99447.19;68528;1278;1015576;-70
2024/02/15 08:21:32;;;;;;;;;;;;;;;12.41;58.90;99449.89;68537;1278;1015160;-70
2024/02/15 08:24:35;;;;;;;;;;;;;;;12.56;58.74;99451.87;68515;1278;1016053;-70
2024/02/15 08:27:40;;;;;;;;;;;;;;;12.69;58.61;99450.41;68544;1278;1015548;-69
2024/02/15 08:30:43;;;;;;;;;;;;;;;12.91;58.51;99447.13;68531;1278;1015171;-69
2024/02/15 08:33:45;;;;;;;;;;;;;;;13.12;57.95;99446.55;68515;1278;1015808;-70
2024/02/15 08:36:48;;;;;;;;;;;;;;;13.36;57.37;99441.43;68536;1278;1015524;-69
2024/02/15 08:39:52;;;;;;;;;;;;;;;13.39;57.16;99437.02;68509;1278;1014285;-69
2024/02/15 08:42:55;;;;;;;;;;;;;;;13.46;57.64;99435.56;68522;1278;1014716;-69
2024/02/15 08:45:57;;;;;;;;;;;;;;;13.60;57.21;99436.44;68520;1278;1015119;-64
2024/02/15 08:49:00;;;;;;;;;;;;;;;13.71;56.69;99436.22;68530;1278;1015674;-69
2024/02/15 08:52:07;;;;;;;;;;;;;;;13.74;57.14;99433.91;68517;1278;1015835;-69
2024/02/15 08:55:10;;;;;;;;;;;;;;;13.78;56.94;99436.33;68535;1278;1015726;-66
2024/02/15 08:58:12;;;;;;;;;;;;;;;13.90;56.83;99439.41;68531;1278;1015370;-69
2024/02/15 09:01:15;;;;;;;;;;;;;;;14.11;56.94;99436.33;68518;1278;1015475;-69
2024/02/15 09:04:18;;;;;;;;;;;;;;;14.35;56.67;99439.64;68503;1278;1015201;-70
2024/02/15 09:07:22;;;;;;;;;;;;;;;14.51;56.03;99436.98;68518;1278;1016256;-69
2024/02/15 09:10:26;;;;;;;;;;;;;;;14.67;56.33;99438.89;68527;1278;1015589;-69
2024/02/15 09:13:28;;;;;;;;;;;;;;;14.87;55.87;99432.27;68542;1278;1015678;-69
2024/02/15 09:16:33;;;;;;;;;;;;;;;14.91;54.97;99434.09;68540;1278;1015463;-69
2024/02/15 09:19:36;;;;;;;;;;;;;;;14.92;55.70;99431.59;68507;1278;1015255;-69
2024/02/15 09:22:38;;;;;;;;;;;;;;;15.13;55.38;99428.55;68517;1278;1015424;-69
2024/02/15 09:25:43;;;;;;;;;;;;;;;15.18;54.83;99432.23;68519;1278;1015704;-69
2024/02/15 09:28:45;;;;;;;;;;;;;;;15.28;55.00;99432.23;68528;1278;1014640;-69
2024/02/15 09:31:48;;;;;;;;;;;;;;;15.47;55.02;99431.61;68528;1278;1015524;-69
2024/02/15 09:34:50;;;;;;;;;;;;;;;15.59;54.71;99429.48;68532;1278;1016007;-69
2024/02/15 09:37:55;;;;;;;;;;;;;;;15.81;54.30;99429.14;68524;1278;1015810;-69
2024/02/15 09:40:58;;;;;;;;;;;;;;;15.89;54.17;99426.80;68524;1278;1015252;-69
2024/02/15 09:44:01;;;;;;;;;;;;;;;15.93;53.77;99424.84;68523;1278;1014340;-69
2024/02/15 09:47:05;;;;;;;;;;;;;;;15.89;53.99;99423.63;68532;1278;1015652;-69
2024/02/15 09:50:07;;;;;;;;;;;;;;;15.89;53.49;99427.72;68527;1278;1016307;-69
2024/02/15 09:53:10;;;;;;;;;;;;;;;15.92;53.59;99421.64;68539;1278;1015992;-69
2024/02/15 09:56:12;;;;;;;;;;;;;;;16.13;53.34;99421.02;68541;1278;1015600;-69
2024/02/15 09:59:15;;;;;;;;;;;;;;;16.24;53.47;99419.32;68553;1278;1015322;-69
2024/02/15 10:02:18;;;;;;;;;;;;;;;16.43;53.45;99420.34;68548;1278;1015865;-68
2024/02/15 10:05:22;;;;;;;;;;;;;;;16.69;53.21;99414.88;68535;1278;1016019;-69
2024/02/15 10:08:25;;;;;;;;;;;;;;;16.90;53.04;99411.52;68541;1278;1016181;-69
2024/02/15 10:11:28;;;;;;;;;;;;;;;16.95;52.00;99411.10;68550;1278;1015582;-69
2024/02/15 10:14:30;;;;;;;;;;;;;;;17.05;52.44;99411.20;68529;1278;1015911;-69
2024/02/15 10:17:35;;;;;;;;;;;;;;;17.27;52.26;99403.80;68531;1278;1015535;-68
2024/02/15 10:20:38;;;;;;;;;;;;;;;17.38;51.46;99405.09;68530;1278;1015418;-69
2024/02/15 10:23:41;;;;;;;;;;;;;;;17.38;51.70;99401.19;68541;1278;1015204;-69
2024/02/15 10:26:44;;;;;;;;;;;;;;;17.38;52.29;99403.84;68544;1278;1015132;-69
2024/02/15 10:29:47;;;;;;;;;;;;;;;17.53;52.00;99402.15;68546;1278;1015502;-69
2024/02/15 10:32:50;;;;;;;;;;;;;;;17.64;51.36;99399.45;68541;1278;1015542;-69
2024/02/15 10:35:53;;;;;;;;;;;;;;;17.80;51.50;99399.23;68530;1278;1014870;-69
2024/02/15 10:38:55;;;;;;;;;;;;;;;18.13;51.30;99390.72;68546;1278;1015452;-69
2024/02/15 10:41:58;;;;;;;;;;;;;;;18.34;50.63;99392.67;68519;1278;1015957;-69
2024/02/15 10:45:02;;;;;;;;;;;;;;;18.66;50.38;99382.84;68519;1278;1016034;-69
2024/02/15 10:48:05;;;;;;;;;;;;;;;18.93;49.73;99383.24;68533;1278;1015857;-69
2024/02/15 10:51:07;;;;;;;;;;;;;;;18.98;49.14;99382.63;68541;1278;1015777;-69
2024/02/15 10:54:12;;;;;;;;;;;;;;;19.17;49.41;99375.34;68534;1278;1015705;-69
2024/02/15 10:57:16;;;;;;;;;;;;;;;19.26;48.75;99377.38;68549;1278;1016368;-69
2024/02/15 11:00:21;;;;;;;;;;;;;;;19.38;48.83;99379.17;68544;1278;1015790;-69
2024/02/15 11:03:24;;;;;;;;;;;;;;;19.50;48.77;99375.92;68533;1278;1015405;-69
2024/02/15 11:06:26;;;;;;;;;;;;;;;19.65;48.32;99374.58;68527;1278;1015616;-69
2024/02/15 11:09:43;;;;;;;;;;;;;;;19.80;47.51;99374.90;68533;1278;1015798;-62
2024/02/15 11:12:45;;;;;;;;;;;;;;;19.98;47.38;99367.65;68538;1278;1015447;-68
2024/02/15 11:15:51;;;;;;;;;;;;;;;20.00;47.21;99366.16;68535;1278;1015871;-68
2024/02/15 11:18:55;;;;;;;;;;;;;;;19.84;46.59;99367.83;68532;1278;1015432;-68
2024/02/15 11:21:57;;;;;;;;;;;;;;;19.80;47.08;99364.23;68525;1278;1015898;-69
2024/02/15 11:25:00;;;;;;;;;;;;;;;20.14;47.22;99358.63;68531;1278;1014983;-69
2024/02/15 11:28:04;;;;;;;;;;;;;;;20.17;47.02;99356.05;68534;1278;1015740;-69
2024/02/15 11:31:06;;;;;;;;;;;;;;;20.01;47.06;99355.24;68554;1278;1015687;-69
2024/02/15 11:34:09;;;;;;;;;;;;;;;19.82;46.74;99355.06;68534;1278;1015777;-69
2024/02/15 11:37:12;;;;;;;;;;;;;;;19.50;47.12;99357.67;68539;1278;1015639;-69
2024/02/15 11:40:15;;;;;;;;;;;;;;;19.39;47.62;99357.59;68548;1278;1014601;-63
2024/02/15 11:43:17;;;;;;;;;;;;;;;19.43;47.79;99354.05;68534;1278;1014523;-69
2024/02/15 11:46:20;;;;;;;;;;;;;;;19.24;47.55;99356.61;68541;1278;1015848;-69
2024/02/15 11:49:22;;;;;;;;;;;;;;;19.09;47.44;99349.63;68539;1278;1016143;-69
2024/02/15 11:52:25;;;;;;;;;;;;;;;19.05;47.84;99351.96;68520;1278;1015474;-69
2024/02/15 11:55:28;;;;;;;;;;;;;;;18.95;47.72;99351.54;68544;1278;1015631;-69
2024/02/15 11:58:41;;;;;;;;;;;;;;;18.99;47.46;99343.88;68531;1278;1015713;-69
2024/02/15 12:18:43;;;;;;;;;;;;;;;18.82;48.43;99344.86;68530;1278;1016009;-68
2024/02/15 12:21:45;;;;;;;;;;;;;;;18.92;48.20;99342.95;68530;1278;1015714;-69
2024/02/15 12:24:48;;;;;;;;;;;;;;;18.95;48.00;99341.67;68520;1278;1015723;-69
2024/02/15 12:27:50;;;;;;;;;;;;;;;18.92;48.05;99341.67;68538;1278;1015159;-68
2024/02/15 12:30:53;;;;;;;;;;;;;;;18.75;48.61;99348.48;68533;1278;1015233;-68
2024/02/15 12:33:56;;;;;;;;;;;;;;;18.65;48.99;99345.25;68542;1278;1016155;-69
2024/02/15 12:36:58;;;;;;;;;;;;;;;18.71;48.89;99346.33;68540;1278;1015577;-69
2024/02/15 12:40:01;;;;;;;;;;;;;;;18.68;48.61;99342.34;68441;1279;1016043;-69
2024/02/15 12:43:05;;;;;;;;;;;;;;;18.78;48.45;99340.26;68401;1279;1015599;-68
2024/02/15 12:46:07;;;;;;;;;;;;;;;18.63;48.59;99334.81;68428;1279;1016108;-69
2024/02/15 12:49:13;;;;;;;;;;;;;;;18.50;48.66;99330.23;68412;1279;1016053;-69
2024/02/15 12:52:15;;;;;;;;;;;;;;;18.55;48.76;99325.91;68447;1279;1016370;-68
2024/02/15 12:55:19;;;;;;;;;;;;;;;18.49;48.22;99326.48;68439;1279;1015745;-69
2024/02/15 12:58:24;;;;;;;;;;;;;;;18.63;48.22;99322.35;68442;1279;1015904;-69
2024/02/15 13:01:28;;;;;;;;;;;;;;;18.94;48.26;99318.47;68404;1279;1015767;-69
2024/02/15 13:04:31;;;;;;;;;;;;;;;19.03;47.83;99319.66;68438;1279;1015983;-69
2024/02/15 13:07:34;;;;;;;;;;;;;;;19.05;47.54;99316.82;68431;1279;1015160;-69
2024/02/15 13:10:36;;;;;;;;;;;;;;;19.20;47.27;99312.35;68422;1279;1015483;-69
2024/02/15 13:13:39;;;;;;;;;;;;;;;19.14;47.19;99308.39;68434;1279;1015876;-69
2024/02/15 13:16:42;;;;;;;;;;;;;;;19.34;47.07;99307.17;68437;1279;1016102;-69
2024/02/15 13:19:45;;;;;;;;;;;;;;;19.45;46.61;99308.49;68446;1279;1015450;-69
2024/02/15 13:22:49;;;;;;;;;;;;;;;19.24;46.80;99307.03;68439;1279;1015482;-69
2024/02/15 13:25:52;;;;;;;;;;;;;;;19.22;47.18;99305.36;68429;1279;1016303;-69
2024/02/15 13:28:54;;;;;;;;;;;;;;;19.18;47.29;99306.30;68452;1279;1015899;-69
2024/02/15 13:31:57;;;;;;;;;;;;;;;19.13;47.35;99300.36;68414;1279;1015518;-69
2024/02/15 13:35:07;;;;;;;;;;;;;;;19.21;46.23;99297.00;68447;1279;1015358;-69
2024/02/15 13:38:14;;;;;;;;;;;;;;;19.17;46.96;99295.02;68462;1278;1015519;-69
2024/02/15 13:41:17;;;;;;;;;;;;;;;19.02;47.15;99300.30;68540;1278;1015668;-69
2024/02/15 13:44:19;;;;;;;;;;;;;;;18.98;47.19;99294.04;68543;1278;1015557;-68
2024/02/15 13:47:22;;;;;;;;;;;;;;;19.00;47.40;99292.98;68526;1278;1015540;-69
2024/02/15 13:50:24;;;;;;;;;;;;;;;18.87;47.92;99293.20;68535;1278;1014552;-69
2024/02/15 13:53:28;;;;;;;;;;;;;;;18.69;47.87;99292.28;68533;1278;1015394;-69
2024/02/15 13:56:30;;;;;;;;;;;;;;;18.42;48.27;99293.92;68526;1278;1015446;-69
2024/02/15 13:59:34;;;;;;;;;;;;;;;18.21;48.71;99292.71;68536;1278;1015991;-69
2024/02/15 14:02:37;;;;;;;;;;;;;;;18.12;48.75;99297.92;68521;1278;1015746;-69
2024/02/15 14:05:42;;;;;;;;;;;;;;;17.91;49.18;99299.10;68518;1278;1015450;-68
2024/02/15 14:08:44;;;;;;;;;;;;;;;17.86;49.39;99306.23;68532;1278;1016127;-69
2024/02/15 14:11:47;;;;;;;;;;;;;;;17.77;49.61;99306.08;68526;1277;1015315;-69
2024/02/15 14:14:49;;;;;;;;;;;;;;;17.80;49.95;99308.52;68541;1278;1015773;-68
2024/02/15 14:17:53;;;;;;;;;;;;;;;17.82;49.66;99308.00;68536;1278;1015283;-68
2024/02/15 14:20:55;;;;;;;;;;;;;;;17.74;49.64;99310.43;68511;1278;1016135;-69
2024/02/15 14:23:58;;;;;;;;;;;;;;;17.61;49.91;99310.91;68532;1278;1015250;-69
2024/02/15 14:27:01;;;;;;;;;;;;;;;17.73;49.69;99312.65;68531;1278;1015399;-69
2024/02/15 14:33:24;;;;;;;;;;;;;;;17.48;50.74;99314.82;68531;1278;1015508;-69
2024/02/15 14:36:26;;;;;;;;;;;;;;;17.35;50.95;99317.84;68518;1278;1015282;-69
2024/02/15 14:39:30;;;;;;;;;;;;;;;17.27;51.07;99316.52;68516;1278;1015553;-69
2024/02/15 14:42:33;;;;;;;;;;;;;;;17.29;51.10;99322.89;68528;1278;1015388;-69
2024/02/15 14:45:37;;;;;;;;;;;;;;;17.31;51.05;99311.77;68529;1278;1015792;-69
2024/02/15 14:48:40;;;;;;;;;;;;;;;17.26;51.26;99315.17;68523;1278;1015722;-69
2024/02/15 14:51:42;;;;;;;;;;;;;;;17.32;51.25;99310.30;68520;1278;1015587;-69
2024/02/15 14:54:45;;;;;;;;;;;;;;;17.29;51.27;99313.73;68526;1278;1015902;-69
2024/02/15 14:57:47;;;;;;;;;;;;;;;17.26;51.32;99315.17;68524;1278;1015544;-69
2024/02/15 15:00:50;;;;;;;;;;;;;;;17.10;51.80;99315.23;68519;1278;1015989;-69
2024/02/15 15:03:52;;;;;;;;;;;;;;;16.97;52.16;99311.71;68517;1278;1015278;-69
2024/02/15 15:13:35;;;;;;;;;;;;;;;16.93;52.18;99323.52;68509;1278;1015852;-69
2024/02/15 15:16:38;;;;;;;;;;;;;;;16.90;52.26;99323.91;68500;1278;1014702;-69
2024/02/15 15:19:40;;;;;;;;;;;;;;;16.86;52.36;99327.77;68538;1278;1015558;-69
2024/02/15 15:22:43;;;;;;;;;;;;;;;16.77;52.47;99324.92;68509;1278;1015589;-70
2024/02/15 15:25:46;;;;;;;;;;;;;;;16.77;52.50;99323.14;68524;1278;1015743;-69
2024/02/15 15:28:49;;;;;;;;;;;;;;;16.58;53.07;99328.42;68511;1278;1015297;-69
2024/02/15 15:31:52;;;;;;;;;;;;;;;16.52;53.24;99328.29;68526;1278;1016144;-69
2024/02/15 15:34:54;;;;;;;;;;;;;;;16.44;53.26;99328.70;68517;1278;1015948;-69
2024/02/15 15:37:57;;;;;;;;;;;;;;;16.37;53.48;99330.79;68521;1278;1015461;-69
2024/02/15 15:41:00;;;;;;;;;;;;;;;16.40;53.54;99331.81;68507;1278;1015960;-69
2024/02/15 15:44:02;;;;;;;;;;;;;;;16.38;53.52;99333.52;68488;1278;1015861;-69
2024/02/15 15:47:05;;;;;;;;;;;;;;;16.17;54.05;99337.08;68514;1278;1015778;-69
2024/02/15 15:50:07;;;;;;;;;;;;;;;15.98;54.78;99338.70;68514;1278;1015493;-69
2024/02/15 15:53:10;;;;;;;;;;;;;;;15.95;54.73;99342.82;68507;1278;1016046;-69
2024/02/15 15:56:13;;;;;;;;;;;;;;;15.93;54.92;99346.48;68498;1278;1015449;-69
2024/02/15 15:59:22;;;;;;;;;;;;;;;15.93;54.89;99341.88;68503;1278;1015949;-69
2024/02/15 16:02:26;;;;;;;;;;;;;;;15.80;55.17;99341.81;68489;1278;1015407;-69
2024/02/15 16:05:29;;;;;;;;;;;;;;;15.64;55.73;99343.67;68498;1278;1016102;-69
2024/02/15 16:08:32;;;;;;;;;;;;;;;15.56;55.78;99338.27;68506;1278;1015631;-69